Airfield :
LOGIN :

Register | Disclaimer

   EN    FR    IT 

 










Legend :    VFR   Marginal VFR   IFR   Intensive IFR   Very Intensive IFR
Visi :
Ceiling :
>= 8 km
>= 3000ft
5 to 8 km
1000 to 3000 ft
1500m to 5 km
500 to 1000 ft
800 to 1500m
200 to 500 ft
< 800m
< 200 ft
Symbols :   Thunderstorms  Fog  Heavy snow  Heavy precipitations  Wind > 20 kt
SIGMETs :     Misc.  Thunderstorms  Icing  Turbulence  Mountain Waves  Volcanic Ashes






- Airport Elevation : 255 ft


ENGC - Gullfaks C oil platform

CURRENT METAR :
  • 301050Z 32046KT 9999 VCSH FEW015CB SCT025 01/M01 Q1003 W06/S6

EXPIRED METARs :
  • 301020Z 33042KT 9999 5000NE -SHRA SCT015CB SCT025 03/M04 Q1002 W06/S6
  • 300950Z 32042G53KT 4000 -SHRASNGS SCT012CB BKN035 03/M03 Q1001 W06/S6
  • 300920Z 33041KT 9999 VCSH FEW015CB BKN035 03/M06 Q1001 W06/S6
  • 300850Z 33041KT 9999 VCSH FEW010 SCT015CB BKN025 02/M02 Q1001 W06/S6
  • 300820Z 33039KT 9999 -SHRA FEW008 SCT015CB BKN025 02/00 Q0999 W06/S6

TAF TAF ENGC
Valid from the 30 at 09:00 until the 31 at 09:00 UTC


3009/3109 33040KT 9999 -SHRA FEW015TCU SCT030
TEMPO 3009/3018 3000 SHRASN BKN012CB
BECMG 3014/3016 33030KT
BECMG 3018/3020 30020KT
BECMG 3022/3024 24015KT
BECMG 3102/3104 18025KT 4000 RADZ BKN008
BECMG 3103/3105 17035KT
BECMG 3105/3107 27035KT 9999 -SHRA FEW015CB BKN025



MET'MAP, your aeronautical weather chart ! - Copyright ORBIFLY December 2007 - Disclaimer

ORBIFLY MET'MAP TEAM :

Programming & Development : Alexandra Zaïnal
Original concept : Baudouin d'Aumeries
Technical & hardware support : Manuel Goepfert
Assistance : Marc-Olivier Méhu




SOURCES & CREDITS :

   NOAA